createdAt,value
2022-12-06T00:01:30.684Z,31.25
2022-12-06T00:04:01.133Z,27.75
2022-12-06T00:06:32.888Z,40.00
2022-12-06T00:09:00.576Z,41.25
2022-12-06T00:11:44.957Z,38.50
2022-12-06T00:14:15.702Z,33.25
2022-12-06T00:16:42.614Z,35.00
2022-12-06T00:19:12.857Z,26.50
2022-12-06T00:21:41.221Z,39.00
2022-12-06T00:24:11.480Z,36.25
2022-12-06T00:26:41.863Z,37.50
2022-12-06T00:29:13.387Z,36.50
2022-12-06T00:31:40.773Z,37.00
2022-12-06T00:34:08.059Z,37.50
2022-12-06T00:36:39.371Z,34.50
2022-12-06T00:39:11.343Z,34.50
2022-12-06T00:41:39.024Z,37.50
2022-12-06T00:44:06.761Z,33.75
2022-12-06T00:46:35.457Z,36.25
2022-12-06T00:49:05.701Z,32.00
2022-12-06T00:51:34.685Z,30.75
2022-12-06T00:54:01.898Z,38.00
2022-12-06T00:56:30.815Z,30.50
2022-12-06T00:58:58.013Z,33.00
2022-12-06T01:01:27.535Z,34.25
2022-12-06T01:03:58.189Z,30.00
2022-12-06T01:06:29.225Z,32.50
2022-12-06T01:08:59.216Z,33.00
2022-12-06T01:11:27.858Z,28.75
2022-12-06T01:13:56.826Z,35.00
2022-12-06T01:16:28.190Z,28.00
2022-12-06T01:18:58.412Z,32.75
2022-12-06T01:21:27.259Z,34.50
2022-12-06T01:23:54.352Z,30.50
2022-12-06T01:26:24.909Z,29.00
2022-12-06T01:28:52.207Z,33.50
2022-12-06T01:31:21.252Z,29.00
2022-12-06T01:33:48.433Z,28.75
2022-12-06T01:36:20.340Z,28.00
2022-12-06T01:38:50.768Z,29.75
2022-12-06T01:41:18.438Z,29.00
2022-12-06T01:43:47.076Z,30.75
2022-12-06T01:46:28.357Z,43.67
2022-12-06T01:49:08.229Z,35.50
2022-12-06T01:51:36.584Z,34.00
2022-12-06T01:54:10.296Z,35.50
2022-12-06T01:56:38.863Z,33.25
2022-12-06T01:59:08.020Z,32.50
2022-12-06T02:01:39.179Z,31.50
2022-12-06T02:04:07.387Z,0.00
2022-12-06T02:06:34.652Z,33.25
2022-12-06T02:09:06.061Z,31.25
2022-12-06T02:11:35.704Z,32.00
2022-12-06T02:14:09.532Z,27.50
2022-12-06T02:17:04.810Z,31.50
2022-12-06T02:20:18.908Z,26.25
2022-12-06T02:23:35.137Z,31.75
2022-12-06T02:26:37.662Z,26.75
2022-12-06T02:29:46.104Z,31.00
2022-12-06T02:32:24.112Z,30.75
2022-12-06T02:34:59.469Z,34.75
2022-12-06T02:37:34.264Z,29.50
2022-12-06T02:40:07.943Z,35.00
2022-12-06T02:42:44.493Z,34.50
2022-12-06T02:45:19.034Z,31.75
2022-12-06T02:47:51.902Z,30.75
2022-12-06T02:50:25.196Z,29.50
2022-12-06T02:52:58.289Z,28.75
2022-12-06T02:55:26.602Z,27.25
2022-12-06T02:57:54.758Z,27.00
2022-12-06T03:00:37.164Z,25.50
2022-12-06T03:03:53.151Z,25.25
2022-12-06T03:06:51.146Z,25.00
2022-12-06T03:09:36.492Z,28.50
2022-12-06T03:12:12.254Z,29.25
2022-12-06T03:14:51.022Z,4.25
2022-12-06T03:17:34.730Z,25.75
2022-12-06T03:20:11.960Z,18.75
2022-12-06T03:22:46.405Z,25.25
2022-12-06T03:25:14.866Z,22.75
2022-12-06T03:27:44.964Z,22.75
2022-12-06T03:30:15.899Z,22.00
2022-12-06T03:32:48.858Z,24.50
2022-12-06T03:35:25.724Z,16.75
2022-12-06T03:38:04.587Z,21.00
2022-12-06T03:40:36.948Z,17.75
2022-12-06T03:43:05.243Z,20.25
2022-12-06T03:45:40.332Z,15.50
2022-12-06T03:48:12.772Z,16.25
2022-12-06T03:50:47.593Z,16.50
2022-12-06T03:53:17.420Z,10.50
2022-12-06T03:55:44.462Z,16.25
2022-12-06T03:58:11.757Z,14.75
2022-12-06T04:00:39.049Z,15.25
2022-12-06T04:03:05.973Z,15.50
2022-12-06T04:05:32.917Z,14.50
2022-12-06T04:08:01.111Z,15.75
2022-12-06T04:10:28.130Z,16.50
2022-12-06T04:12:54.918Z,17.75
2022-12-06T04:15:23.254Z,15.25
2022-12-06T04:17:50.239Z,18.25
2022-12-06T04:20:17.433Z,20.25
2022-12-06T04:22:44.180Z,18.00
2022-12-06T04:25:12.251Z,16.50
2022-12-06T04:27:39.421Z,18.25
2022-12-06T04:30:09.275Z,16.50
2022-12-06T04:32:36.027Z,17.25
2022-12-06T04:35:02.958Z,17.00
2022-12-06T04:37:30.068Z,18.00
2022-12-06T04:39:56.793Z,20.50
2022-12-06T04:42:25.203Z,17.75
2022-12-06T04:44:52.032Z,17.25
2022-12-06T04:47:19.502Z,16.00
2022-12-06T04:49:46.545Z,17.75
2022-12-06T04:52:14.259Z,19.75
2022-12-06T04:54:42.005Z,15.50
2022-12-06T04:57:11.992Z,19.50
2022-12-06T04:59:43.138Z,15.00
2022-12-06T05:02:14.755Z,17.25
2022-12-06T05:04:42.032Z,20.25
2022-12-06T05:07:09.656Z,18.25
2022-12-06T05:09:36.652Z,16.75
2022-12-06T05:12:03.805Z,23.50
2022-12-06T05:14:30.913Z,20.75
2022-12-06T05:16:59.983Z,43.00
2022-12-06T05:19:27.005Z,49.33
2022-12-06T05:21:53.959Z,37.75
2022-12-06T05:24:20.825Z,28.50
2022-12-06T05:26:47.565Z,21.25
2022-12-06T05:29:14.548Z,22.75
2022-12-06T05:31:41.490Z,17.25
2022-12-06T05:34:10.791Z,21.00
2022-12-06T05:36:37.768Z,24.25
2022-12-06T05:39:04.549Z,20.00
2022-12-06T05:41:31.849Z,23.50
2022-12-06T05:43:58.581Z,18.75
2022-12-06T05:46:25.508Z,21.00
2022-12-06T05:48:52.337Z,22.75
2022-12-06T05:51:20.500Z,24.50
2022-12-06T05:53:47.236Z,28.00
2022-12-06T05:56:14.085Z,22.75
2022-12-06T05:58:41.057Z,23.75
2022-12-06T06:01:09.798Z,38.75
2022-12-06T06:03:42.232Z,21.25
2022-12-06T06:06:12.486Z,21.25
2022-12-06T06:08:40.747Z,21.75
2022-12-06T06:11:07.817Z,22.25
2022-12-06T06:13:34.741Z,25.75
2022-12-06T06:16:01.537Z,24.00
2022-12-06T06:18:28.710Z,17.75
2022-12-06T06:20:59.136Z,19.75
2022-12-06T06:23:29.589Z,24.00
2022-12-06T06:25:57.740Z,24.25
2022-12-06T06:28:24.661Z,15.50
2022-12-06T06:30:51.611Z,22.50
2022-12-06T06:33:18.775Z,25.25
2022-12-06T06:35:45.480Z,24.00
2022-12-06T06:38:12.377Z,21.00
2022-12-06T06:40:39.175Z,22.00
2022-12-06T06:43:07.289Z,18.25
2022-12-06T06:45:34.695Z,23.75
2022-12-06T06:48:01.488Z,17.50
2022-12-06T06:50:28.516Z,19.50
2022-12-06T06:52:55.261Z,23.75
2022-12-06T06:55:22.061Z,22.75
2022-12-06T06:57:48.902Z,28.75
2022-12-06T07:00:19.115Z,21.75
2022-12-06T07:02:46.122Z,25.75
2022-12-06T07:05:13.280Z,26.25
2022-12-06T07:07:40.168Z,26.50
2022-12-06T07:10:08.583Z,26.25
2022-12-06T07:12:35.605Z,23.50
2022-12-06T07:15:02.382Z,21.25
2022-12-06T07:17:31.109Z,27.50
2022-12-06T07:19:58.460Z,24.25
2022-12-06T07:22:25.565Z,24.00
2022-12-06T07:24:52.653Z,26.50
2022-12-06T07:27:19.555Z,24.75
2022-12-06T07:29:46.321Z,25.25
2022-12-06T07:32:13.067Z,26.75
2022-12-06T07:34:41.485Z,23.75
2022-12-06T07:37:08.263Z,24.00
2022-12-06T07:39:35.256Z,24.00
2022-12-06T07:42:02.317Z,23.75
2022-12-06T07:44:41.259Z,23.00
2022-12-06T07:47:08.330Z,23.00
2022-12-06T07:49:35.138Z,23.75
2022-12-06T07:52:03.679Z,25.75
2022-12-06T07:54:30.401Z,21.25
2022-12-06T07:56:57.191Z,23.25
2022-12-06T07:59:25.184Z,25.25
2022-12-06T08:01:53.181Z,19.25
2022-12-06T08:04:21.176Z,23.00
2022-12-06T08:06:48.064Z,27.00
2022-12-06T08:09:16.189Z,33.75
2022-12-06T08:11:43.010Z,28.25
2022-12-06T08:14:10.811Z,25.50
2022-12-06T08:16:37.686Z,24.25
2022-12-06T08:19:04.504Z,19.50
2022-12-06T08:21:31.528Z,21.00
2022-12-06T08:23:58.553Z,15.75
2022-12-06T08:26:26.762Z,20.00
2022-12-06T08:28:53.753Z,17.25
2022-12-06T08:31:23.455Z,15.00
2022-12-06T08:33:51.593Z,18.50
2022-12-06T08:36:24.078Z,22.00
2022-12-06T08:38:52.735Z,17.00
2022-12-06T08:41:20.600Z,16.00
2022-12-06T08:43:48.783Z,16.75
2022-12-06T08:46:17.945Z,12.50
2022-12-06T08:48:44.756Z,10.25
2022-12-06T08:51:11.546Z,19.75
2022-12-06T08:53:38.365Z,23.25
2022-12-06T08:56:05.973Z,21.25
2022-12-06T08:58:32.747Z,21.25
2022-12-06T09:01:01.326Z,28.00
2022-12-06T09:03:29.082Z,19.50
2022-12-06T09:05:55.892Z,19.75
2022-12-06T09:08:22.748Z,19.50
2022-12-06T09:10:49.543Z,21.50
2022-12-06T09:13:16.305Z,15.00
2022-12-06T09:15:43.212Z,13.00
2022-12-06T09:18:11.422Z,10.25
2022-12-06T09:20:39.856Z,14.75
2022-12-06T09:23:06.941Z,6.75
2022-12-06T09:25:33.900Z,15.00
2022-12-06T09:28:00.766Z,9.50
2022-12-06T09:30:28.661Z,8.75
2022-12-06T09:32:55.646Z,8.75
2022-12-06T09:35:25.336Z,6.50
2022-12-06T09:37:53.242Z,1.75
2022-12-06T09:40:32.097Z,9.00
2022-12-06T09:43:22.825Z,7.75
2022-12-06T09:46:24.455Z,4.50
2022-12-06T09:49:28.422Z,8.75
2022-12-06T09:52:19.172Z,12.50
2022-12-06T09:55:05.766Z,9.00
2022-12-06T09:57:44.649Z,8.50
2022-12-06T10:00:26.200Z,7.00
2022-12-06T10:03:26.237Z,6.25
2022-12-06T10:06:00.184Z,9.00
2022-12-06T10:08:51.798Z,9.75
2022-12-06T10:11:41.790Z,8.50
2022-12-06T10:14:28.410Z,8.25
2022-12-06T10:17:08.715Z,6.00
2022-12-06T10:19:57.917Z,7.50
2022-12-06T10:22:41.006Z,4.50
2022-12-06T10:25:18.893Z,10.50
2022-12-06T10:27:58.874Z,11.00
2022-12-06T10:30:26.133Z,13.25
2022-12-06T10:33:00.425Z,9.00
2022-12-06T10:35:54.445Z,6.00
2022-12-06T10:38:32.510Z,8.25
2022-12-06T10:41:12.746Z,10.50
2022-12-06T10:43:54.113Z,8.50
2022-12-06T10:46:31.009Z,7.50
2022-12-06T10:49:08.944Z,8.50
2022-12-06T10:51:43.509Z,7.75
2022-12-06T10:54:25.950Z,12.50
2022-12-06T10:57:00.288Z,12.00
2022-12-06T10:59:37.173Z,12.00
2022-12-06T11:02:24.861Z,13.25
2022-12-06T11:05:00.203Z,13.25
2022-12-06T11:07:37.485Z,16.25
2022-12-06T11:10:19.218Z,11.75
2022-12-06T11:12:54.614Z,9.75
2022-12-06T11:15:26.512Z,11.00
2022-12-06T11:18:04.029Z,12.75
2022-12-06T11:20:39.769Z,10.25
2022-12-06T11:23:19.300Z,15.00
2022-12-06T11:26:12.536Z,10.25
2022-12-06T11:28:43.893Z,10.25
2022-12-06T11:31:25.562Z,10.25
2022-12-06T11:33:53.310Z,10.25
2022-12-06T11:36:21.341Z,11.00
2022-12-06T11:38:48.478Z,10.50
2022-12-06T11:41:23.897Z,10.25
2022-12-06T11:43:55.130Z,10.00
2022-12-06T11:46:24.574Z,8.50
2022-12-06T11:48:52.213Z,14.25
2022-12-06T11:51:22.981Z,11.00
2022-12-06T11:54:00.861Z,11.75
2022-12-06T11:56:31.505Z,9.25
2022-12-06T11:59:21.455Z,11.75
2022-12-06T12:01:51.831Z,13.25
2022-12-06T12:04:39.833Z,17.50
2022-12-06T12:07:16.547Z,22.50
2022-12-06T12:09:52.254Z,21.00
2022-12-06T12:12:23.045Z,17.75
2022-12-06T12:14:58.077Z,14.25
2022-12-06T12:17:31.231Z,15.75
2022-12-06T12:20:04.608Z,16.25
2022-12-06T12:22:37.830Z,16.50
2022-12-06T12:25:24.890Z,16.75
2022-12-06T12:27:54.600Z,20.25
2022-12-06T12:30:32.918Z,13.50
2022-12-06T12:33:21.971Z,11.25
2022-12-06T12:35:54.008Z,12.75
2022-12-06T12:38:28.308Z,4.75
2022-12-06T12:41:00.014Z,17.00
2022-12-06T12:43:31.805Z,16.00
2022-12-06T12:46:15.230Z,19.75
2022-12-06T12:48:46.169Z,19.00
2022-12-06T12:51:32.592Z,15.00
2022-12-06T12:54:03.407Z,16.50
2022-12-06T12:56:35.360Z,14.25
2022-12-06T12:59:16.345Z,16.00
2022-12-06T13:01:51.687Z,13.00
2022-12-06T13:04:33.341Z,11.50
2022-12-06T13:07:05.855Z,16.00
2022-12-06T13:09:46.515Z,15.50
2022-12-06T13:12:23.217Z,18.00
2022-12-06T13:14:58.307Z,15.25
2022-12-06T13:17:31.815Z,14.00
2022-12-06T13:19:58.933Z,13.25
2022-12-06T13:22:30.952Z,18.50
2022-12-06T13:25:07.626Z,20.25
2022-12-06T13:27:42.434Z,18.00
2022-12-06T13:30:18.025Z,16.00
2022-12-06T13:32:53.276Z,14.00
2022-12-06T13:35:28.235Z,21.25
2022-12-06T13:37:58.057Z,23.25
2022-12-06T13:40:49.491Z,22.00
2022-12-06T13:43:56.371Z,26.00
2022-12-06T13:46:31.383Z,25.25
2022-12-06T13:49:03.592Z,23.50
2022-12-06T13:51:46.862Z,23.25
2022-12-06T13:54:40.992Z,15.00
2022-12-06T13:57:30.129Z,14.00
2022-12-06T13:59:57.041Z,12.75
2022-12-06T14:02:51.281Z,17.00
2022-12-06T14:06:07.352Z,17.00
2022-12-06T14:08:42.769Z,15.50
2022-12-06T14:11:18.726Z,18.25
2022-12-06T14:13:48.650Z,19.25
2022-12-06T14:16:29.197Z,25.50
2022-12-06T14:18:56.463Z,19.75
2022-12-06T14:21:30.454Z,20.50
2022-12-06T14:23:57.791Z,20.00
2022-12-06T14:26:28.326Z,27.25
2022-12-06T14:28:58.372Z,28.50
2022-12-06T14:31:30.426Z,26.50
2022-12-06T14:33:57.622Z,25.25
2022-12-06T14:36:29.506Z,25.00
2022-12-06T14:39:06.192Z,26.75
2022-12-06T14:41:37.726Z,28.50
2022-12-06T14:44:14.014Z,24.00
2022-12-06T14:46:42.393Z,20.75
2022-12-06T14:49:18.475Z,19.50
2022-12-06T14:51:46.782Z,26.75
2022-12-06T14:54:19.552Z,26.00
2022-12-06T14:56:47.019Z,28.50
2022-12-06T14:59:38.970Z,26.50
2022-12-06T15:02:23.620Z,24.25
2022-12-06T15:04:51.213Z,21.75
2022-12-06T15:07:41.991Z,27.75
2022-12-06T15:10:24.579Z,29.25
2022-12-06T15:12:52.971Z,28.00
2022-12-06T15:15:39.901Z,27.50
2022-12-06T15:18:23.846Z,29.75
2022-12-06T15:20:52.016Z,29.75
2022-12-06T15:23:36.130Z,25.50
2022-12-06T15:26:06.407Z,29.75
2022-12-06T15:28:34.092Z,32.00
2022-12-06T15:31:01.738Z,29.50
2022-12-06T15:33:29.059Z,23.75
2022-12-06T15:35:55.862Z,21.50
2022-12-06T15:38:22.662Z,13.75
2022-12-06T15:40:53.530Z,19.50
2022-12-06T15:43:29.061Z,23.75
2022-12-06T15:45:58.148Z,24.00
2022-12-06T15:48:25.067Z,18.50
2022-12-06T15:50:51.884Z,16.50
2022-12-06T15:53:22.424Z,12.25
2022-12-06T15:55:52.409Z,17.25
2022-12-06T15:58:23.205Z,19.50
2022-12-06T16:00:50.387Z,20.00
2022-12-06T16:03:17.514Z,22.75
2022-12-06T16:05:44.698Z,30.25
2022-12-06T16:08:11.594Z,24.75
2022-12-06T16:11:10.318Z,26.75
2022-12-06T16:13:27.189Z,28.75
2022-12-06T16:15:54.031Z,26.50
2022-12-06T16:18:20.861Z,24.00
2022-12-06T16:20:48.935Z,26.50
2022-12-06T16:23:18.693Z,27.00
2022-12-06T16:25:46.777Z,28.25
2022-12-06T16:28:14.989Z,25.50
2022-12-06T16:30:44.091Z,27.50
2022-12-06T16:33:17.614Z,26.00
2022-12-06T16:35:45.477Z,23.50
2022-12-06T16:38:14.108Z,28.00
2022-12-06T16:40:45.670Z,27.75
2022-12-06T16:43:13.068Z,28.00
2022-12-06T16:45:44.394Z,23.50
2022-12-06T16:48:16.480Z,28.00
2022-12-06T16:50:45.841Z,31.50
2022-12-06T16:53:13.206Z,30.00
2022-12-06T16:55:40.086Z,28.50
2022-12-06T16:58:07.326Z,23.75
2022-12-06T17:00:34.507Z,27.25
2022-12-06T17:03:02.770Z,22.25
2022-12-06T17:05:29.704Z,23.50
2022-12-06T17:07:56.940Z,25.00
2022-12-06T17:10:23.929Z,32.75
2022-12-06T17:12:50.784Z,46.00
2022-12-06T17:15:20.489Z,50.00
2022-12-06T17:17:48.339Z,63.67
2022-12-06T17:20:18.379Z,34.00
2022-12-06T17:22:45.829Z,38.50
2022-12-06T17:25:14.113Z,33.25
2022-12-06T17:27:41.000Z,43.75
2022-12-06T17:30:14.614Z,12.75
2022-12-06T17:32:41.998Z,26.25
2022-12-06T17:35:08.999Z,33.75
2022-12-06T17:37:37.275Z,26.50
2022-12-06T17:40:05.085Z,29.00
2022-12-06T17:42:32.127Z,31.00
2022-12-06T17:44:58.974Z,22.50
2022-12-06T17:47:26.613Z,26.50
2022-12-06T17:49:53.410Z,34.25
2022-12-06T17:52:20.420Z,45.00
2022-12-06T17:54:48.634Z,39.00
2022-12-06T17:57:17.361Z,32.25
2022-12-06T17:59:46.086Z,32.00
2022-12-06T18:02:16.052Z,23.75
2022-12-06T18:04:43.872Z,21.00
2022-12-06T18:07:11.079Z,23.00
2022-12-06T18:09:38.166Z,29.00
2022-12-06T18:12:08.128Z,34.75
2022-12-06T18:14:35.417Z,33.00
2022-12-06T18:17:02.245Z,33.75
2022-12-06T18:19:29.264Z,31.00
2022-12-06T18:21:56.163Z,30.75
2022-12-06T18:24:25.727Z,31.00
2022-12-06T18:26:54.634Z,29.50
2022-12-06T18:29:24.223Z,36.75
2022-12-06T18:31:52.421Z,38.50
2022-12-06T18:34:20.432Z,34.50
2022-12-06T18:36:47.717Z,34.25
2022-12-06T18:39:18.231Z,38.25
2022-12-06T18:41:46.426Z,33.50
2022-12-06T18:44:13.697Z,26.50
2022-12-06T18:46:42.296Z,23.25
2022-12-06T18:49:12.168Z,23.75
2022-12-06T18:51:39.171Z,22.75
2022-12-06T18:54:07.290Z,23.25
2022-12-06T18:56:35.658Z,19.25
2022-12-06T18:59:06.326Z,24.50
2022-12-06T19:01:36.622Z,36.75
2022-12-06T19:04:07.542Z,49.75
2022-12-06T19:06:37.967Z,49.33
2022-12-06T19:09:08.734Z,42.00
2022-12-06T19:11:36.864Z,38.25
2022-12-06T19:14:04.834Z,46.50
2022-12-06T19:16:36.514Z,24.25
2022-12-06T19:19:14.270Z,18.50
2022-12-06T19:21:43.578Z,19.25
2022-12-06T19:24:12.508Z,17.50
2022-12-06T19:26:39.547Z,14.75
2022-12-06T19:29:06.279Z,38.25
2022-12-06T19:31:33.194Z,19.50
2022-12-06T19:34:00.334Z,18.75
2022-12-06T19:36:31.053Z,18.25
2022-12-06T19:39:00.779Z,22.50
2022-12-06T19:41:28.631Z,19.75
2022-12-06T19:43:55.849Z,18.75
2022-12-06T19:46:26.263Z,24.25
2022-12-06T19:48:55.866Z,18.75
2022-12-06T19:51:23.332Z,23.00
2022-12-06T19:53:51.892Z,20.00
2022-12-06T19:56:18.690Z,28.25
2022-12-06T19:58:46.892Z,20.75
2022-12-06T20:01:17.664Z,24.75
2022-12-06T20:03:44.653Z,22.00
2022-12-06T20:06:18.202Z,22.75
2022-12-06T20:08:47.136Z,27.75
2022-12-06T20:11:18.060Z,32.75
2022-12-06T20:13:44.858Z,33.00
2022-12-06T20:16:12.013Z,30.75
2022-12-06T20:18:38.815Z,32.00
2022-12-06T20:21:06.098Z,30.00
2022-12-06T20:23:32.812Z,24.25
2022-12-06T20:25:59.865Z,25.50
2022-12-06T20:28:28.045Z,32.25
2022-12-06T20:30:55.291Z,28.25
2022-12-06T20:33:22.218Z,27.00
2022-12-06T20:35:49.214Z,20.00
2022-12-06T20:38:15.968Z,17.25
2022-12-06T20:40:42.825Z,25.00
2022-12-06T20:43:10.256Z,28.50
2022-12-06T20:45:38.399Z,29.75
2022-12-06T20:48:05.558Z,23.75
2022-12-06T20:50:32.597Z,26.00
2022-12-06T20:52:59.373Z,25.75
2022-12-06T20:55:26.187Z,25.25
2022-12-06T20:57:53.235Z,23.50
2022-12-06T21:00:21.639Z,25.75
2022-12-06T21:02:50.096Z,23.00
2022-12-06T21:05:18.899Z,29.75
2022-12-06T21:07:46.073Z,26.25
2022-12-06T21:10:12.903Z,27.75
2022-12-06T21:12:39.640Z,28.50
2022-12-06T21:15:07.788Z,35.75
2022-12-06T21:17:34.741Z,32.00
2022-12-06T21:20:03.373Z,36.00
2022-12-06T21:22:30.736Z,35.00
2022-12-06T21:24:57.463Z,42.25
2022-12-06T21:27:24.652Z,40.00
2022-12-06T21:29:51.392Z,41.75
2022-12-06T21:32:18.453Z,31.50
2022-12-06T21:34:46.687Z,33.75
2022-12-06T21:37:15.250Z,39.75
2022-12-06T21:39:42.045Z,33.25
2022-12-06T21:42:08.813Z,36.50
2022-12-06T21:44:36.304Z,17.25
2022-12-06T21:47:03.284Z,22.75
2022-12-06T21:49:29.987Z,25.50
2022-12-06T21:52:01.252Z,23.75
2022-12-06T21:54:34.120Z,22.75
2022-12-06T21:57:00.879Z,22.50
2022-12-06T21:59:27.989Z,25.00
2022-12-06T22:01:54.938Z,24.25
2022-12-06T22:04:22.057Z,21.25
2022-12-06T22:06:48.802Z,24.25
2022-12-06T22:09:15.661Z,22.75
2022-12-06T22:11:44.148Z,25.50
2022-12-06T22:14:11.387Z,15.00
2022-12-06T22:16:41.310Z,24.75
2022-12-06T22:19:08.221Z,26.25
2022-12-06T22:21:35.820Z,25.75
2022-12-06T22:24:02.656Z,31.00
2022-12-06T22:26:31.045Z,30.25
2022-12-06T22:29:00.092Z,39.00
2022-12-06T22:31:29.866Z,34.25
2022-12-06T22:33:57.911Z,28.25
2022-12-06T22:36:25.548Z,16.75
2022-12-06T22:38:54.627Z,12.75
2022-12-06T22:41:22.717Z,9.00
2022-12-06T22:43:51.903Z,9.75
2022-12-06T22:46:22.133Z,9.50
2022-12-06T22:48:49.845Z,11.50
2022-12-06T22:51:19.974Z,14.00
2022-12-06T22:53:51.845Z,11.00
2022-12-06T22:56:19.121Z,12.50
2022-12-06T22:58:45.999Z,11.50
2022-12-06T23:01:17.067Z,9.25
2022-12-06T23:03:47.980Z,10.00
2022-12-06T23:06:17.410Z,8.50
2022-12-06T23:08:45.159Z,9.00
2022-12-06T23:11:16.563Z,11.00
2022-12-06T23:13:43.538Z,12.75
2022-12-06T23:16:14.640Z,17.25
2022-12-06T23:18:42.562Z,19.50
2022-12-06T23:21:14.060Z,22.00
2022-12-06T23:23:44.592Z,13.25
2022-12-06T23:26:14.190Z,13.25
2022-12-06T23:28:41.637Z,11.25
2022-12-06T23:31:13.550Z,11.00
2022-12-06T23:33:41.427Z,9.75
2022-12-06T23:36:13.210Z,11.75
2022-12-06T23:38:40.521Z,10.50
2022-12-06T23:41:11.121Z,8.00
2022-12-06T23:43:39.350Z,10.50
2022-12-06T23:46:08.663Z,10.00
2022-12-06T23:48:36.396Z,13.50
2022-12-06T23:51:07.044Z,12.50
2022-12-06T23:53:35.971Z,10.75
2022-12-06T23:56:07.009Z,12.00
2022-12-06T23:58:34.297Z,12.00
